Weather observations for the past three days for
Mineola/Quitman, Wood County Airport
Imperial (Metric)
Date Time (cdt) Wind (mph) Vis. (mi.) Weather Sky Cond. Temperature (ºF) Relative Humidity Wind Chill (°F) Heat Index (°F) Pressure Precipitation (in)
Air Dwpt 6 hour altimeter (in) sea level (mb) 1 hr 3 hr 6 hr
Max. Min.
04 14:35 S 9 10.00 A Few Clouds FEW320 78.6 54.7 44% 79 29.86 0.0
04 14:15 S 14 G 18 10.00 A Few Clouds FEW320 77.7 53.4 43% 79 29.87 0.0
04 13:55 S 12 G 21 10.00 A Few Clouds FEW280 77.4 53.4 44% 79 29.88 0.0
04 13:35 S 13 G 22 10.00 A Few Clouds FEW330 76.6 52.7 43% 78 29.88 0.0
04 13:15 S 12 G 20 10.00 A Few Clouds FEW330 76.6 52.9 44% 78 29.9 0.0
04 12:55 S 8 G 17 10.00 A Few Clouds FEW330 75.7 52.2 44% 78 29.91 0.0
04 12:35 S 12 G 21 10.00 A Few Clouds FEW340 75 50.4 42% 78 29.91 0.0
04 12:15 SW 15 G 18 10.00 A Few Clouds FEW330 74.5 50 42% 29.92 0.0
04 11:55 S 10 G 18 10.00 Fair CLR 73.9 51.4 45% 29.93 0.0
04 11:35 S 10 G 18 10.00 Fair CLR 73 50.9 46% 29.93 0.0
04 11:15 S 15 G 20 10.00 Fair CLR 72.7 50.5 46% 29.94 0.0
04 10:55 SW 9 G 17 10.00 Fair CLR 72 51.6 49% 29.94 0.0
04 10:35 SW 10 10.00 Fair CLR 71.1 51.1 49% 29.95 0.0
04 10:15 S 8 10.00 Fair CLR 70.3 52 52% 29.95 0.0
04 09:55 S 13 G 23 10.00 Fair CLR 69.3 51.6 54% 29.96 0.0
04 09:35 S 14 G 20 10.00 Fair CLR 67.8 52.5 58% 29.96 0.0
04 09:15 S 10 10.00 Fair CLR 66.6 52.7 61% 29.96 0.0
04 08:55 S 14 G 20 10.00 Fair CLR 65.1 52.2 63% 29.96 0.0
04 08:35 S 8 10.00 Fair CLR 64 52.9 67% 29.95 0.0
04 08:15 S 9 G 17 10.00 Fair CLR 63 52.7 69% 29.96 0.0
04 07:55 SW 9 10.00 Fair CLR 62.2 52.3 70% 29.96 0.0
04 07:35 S 8 10.00 Fair CLR 61.2 52 72% 29.95 0.0
04 07:15 S 7 10.00 Fair CLR 59.9 51.8 75% 29.95 0.0
04 06:55 Vrbl 5 10.00 Fair CLR 59.2 51.6 76% 29.94 0.0
04 06:35 S 7 10.00 Fair CLR 59.4 51.4 75% 29.94 0.0
04 06:15 S 7 10.00 Fair CLR 59.7 51.3 74% 29.94 0.0
04 05:55 S 8 10.00 Fair CLR 59.7 51.1 73% 29.94 0.0
04 05:35 SW 6 10.00 Fair CLR 59.7 51.1 73% 29.95 0.0
04 05:15 S 7 10.00 Fair CLR 60.4 51.1 71% 29.94 0.0
04 04:55 SW 7 10.00 Fair CLR 60.8 51.1 71% 29.95 0.0
04 04:35 S 7 10.00 Fair CLR 61.2 50.9 69% 29.95 0.0
04 04:15 SW 9 10.00 Fair CLR 61.3 50.7 68% 29.96 0.0
04 03:55 S 9 10.00 Fair CLR 61.9 50.4 66% 29.96 0.0
04 03:35 SW 10 10.00 Fair CLR 62.2 50.2 65% 29.95 0.0
04 03:15 Vrbl 6 10.00 Fair CLR 62.4 49.6 63% 29.95 0.0
04 02:55 S 7 10.00 Fair CLR 62.6 49.3 62% 29.95 0.0
04 02:35 S 6 9.00 Fair CLR 62.6 49.1 62% 29.96 0.0
04 02:15 S 6 9.00 Fair CLR 63.3 49.1 60% 29.97 0.0
04 01:55 Vrbl 5 9.00 Fair CLR 63.1 49.3 61% 29.98 0.0
04 01:35 S 3 10.00 Fair CLR 63.9 49.1 59% 29.99 0.0
04 01:15 S 5 10.00 Fair CLR 64.4 49.5 59% 29.99 0.0
04 00:55 S 6 10.00 Fair CLR 63.7 50.2 62% 30 0.0
04 00:35 S 6 9.00 Fair CLR 63.7 50.4 62% 30.01 0.0
04 00:15 S 6 9.00 Fair CLR 64.4 50 60% 30.01 0.0
03 23:55 S 6 10.00 Fair CLR 65.8 49.6 56% 30.01 0.0
03 23:35 S 7 10.00 Fair CLR 66.4 49.6 55% 30.01 0.0
03 23:15 S 5 10.00 Fair CLR 66.4 49.8 55% 30.01 0.0
03 22:55 S 5 10.00 Fair CLR 66.6 50.4 56% 30.01 0.0
03 22:35 S 6 10.00 Fair CLR 67.8 50 53% 30.01 0.0
03 22:15 S 6 10.00 Fair CLR 68.4 49.6 51% 30.01 0.0
03 21:55 S 3 10.00 Fair CLR 66 51.1 59% 30.01 0.0
03 21:35 S 3 10.00 Fair CLR 67.1 50.5 55% 30.01 0.0
03 21:15 Calm 10.00 Fair CLR 66 52.2 61% 30.01 0.0
03 20:55 Calm 10.00 Fair CLR 66.4 52.3 61% 30 0.0
03 20:35 Calm 9.00 Fair CLR 68.4 51.3 55% 30 0.0
03 20:15 S 3 10.00 Fair CLR 70.3 50.9 50% 30 0.0
03 19:55 Calm 10.00 Fair CLR 71.4 51.4 49% 29.99 0.0
03 19:35 SW 5 10.00 Fair CLR 75.2 48.4 39% 78 29.99 0.0
03 19:15 SW 5 10.00 Fair CLR 76.8 47.3 35% 78 30 0.0
03 18:55 SW 6 10.00 Fair CLR 77.5 46.9 34% 78 30 0.0
03 18:35 Vrbl 7 10.00 Fair CLR 78.1 47.1 34% 78 30.01 0.0
03 18:15 SW 7 10.00 A Few Clouds FEW075 79 47.3 33% 79 30.01 0.0
03 17:55 S 10 10.00 Partly Cloudy SCT075 78.6 47.7 34% 79 30.01 0.0
03 17:35 S 7 9.00 Partly Cloudy SCT075 78.8 47.8 34% 79 30.01 0.0
03 17:15 S 8 9.00 Partly Cloudy SCT075 79.2 48 34% 79 30.01 0.0
03 16:55 SW 9 10.00 A Few Clouds FEW075 79.2 47.5 33% 79 30.02 0.0
03 16:35 SW 8 10.00 Fair CLR 79.7 46.2 31% 79 30.03 0.0
03 16:15 SW 7 10.00 A Few Clouds FEW080 79 46.4 32% 79 30.04 0.0
03 15:55 S 6 10.00 Fair CLR 79.3 47.8 33% 79 30.05 0.0
03 15:35 SW 8 G 17 10.00 Fair CLR 79.7 46.2 31% 79 30.06 0.0
03 15:15 SW 10 G 21 9.00 Fair CLR 79.3 49.1 35% 79 30.07 0.0
03 14:55 SW 8 10.00 Fair CLR 79.5 47.7 33% 79 30.08 0.0
03 14:35 W 9 10.00 Fair CLR 79 48.6 34% 79 30.09 0.0
03 13:55 S 13 10.00 Fair CLR 78.4 48.6 35% 79 30.1 0.0
03 13:35 SW 13 G 17 10.00 A Few Clouds FEW370 78.1 49.6 37% 79 30.11 0.0
03 13:15 SW 12 G 17 10.00 A Few Clouds FEW370 77.7 49.1 37% 78 30.12 0.0
03 12:55 SW 9 10.00 A Few Clouds FEW380 77.5 47.8 35% 78 30.13 0.0
03 12:35 W 8 10.00 Fair CLR 77.5 50 38% 78 30.14 0.0
03 12:15 SW 8 G 16 10.00 Fair CLR 76.5 49.8 39% 78 30.15 0.0
03 11:55 W 8 10.00 Fair CLR 75.9 49.5 39% 78 30.16 0.0
03 11:35 SW 10 G 18 10.00 Fair CLR 74.7 49.3 41% 30.16 0.0
03 11:15 SW 9 10.00 Fair CLR 74.3 50.4 43% 30.16 0.0
03 10:55 SW 13 10.00 Fair CLR 72.5 50.4 46% 30.17 0.0
03 10:35 SW 9 10.00 Fair CLR 71.2 52.2 51% 30.17 0.0
03 10:15 SW 10 10.00 Fair CLR 69.4 52 54% 30.17 0.0
03 09:55 SW 8 10.00 Fair CLR 68 51.8 56% 30.17 0.0
03 09:35 SW 6 10.00 Fair CLR 66.7 50.4 56% 30.17 0.0
03 09:15 W 8 10.00 Fair CLR 65.5 49.8 57% 30.17 0.0
03 08:55 SW 6 10.00 Fair CLR 63.9 50.5 62% 30.17 0.0
03 08:35 Vrbl 3 10.00 Fair CLR 62.1 52.5 71% 30.17 0.0
03 08:15 Calm 8.00 Fair CLR 55.4 54.3 96% 30.16 0.0
03 07:55 Calm 5.00 Fog/Mist CLR 52.2 51.8 99% 30.16 0.0
03 06:55 Calm 1.00 Fog/Mist CLR 48.4 48.4 100% 30.15 0.0
03 06:35 Calm 5.00 Fog/Mist CLR 48.6 48.6 100% 30.14 0.0
03 06:15 Calm 4.00 Fog/Mist CLR 48.6 48.6 100% 30.13 0.0
03 05:55 Calm 10.00 Fair CLR 49.1 49.1 100% 30.13 0.0
03 05:35 Calm 10.00 Fair CLR 49.3 49.3 100% 30.13 0.0
03 05:15 Calm 10.00 Fair CLR 49.5 49.5 100% 30.12 0.0
03 04:55 Calm 10.00 Fair CLR 49.5 49.5 100% 30.12 0.0
03 04:35 Calm 10.00 Fair CLR 49.8 49.8 100% 30.12 0.0
03 04:15 Calm 10.00 Fair CLR 50 50 100% 30.12 0.0
03 03:55 Calm 10.00 Fair CLR 50.4 50.4 100% 30.12 0.0
03 03:35 Calm 10.00 Fair CLR 50.5 50.5 100% 30.12 0.0
03 03:15 Calm 10.00 Fair CLR 50.7 50.7 100% 30.12 0.0
03 02:35 Calm 10.00 Fair CLR 51.4 51.1 99% 30.12 0.0
03 02:15 Calm 10.00 Fair CLR 51.6 51.3 99% 30.12 0.0
03 01:55 Calm 10.00 Fair CLR 52.5 51.3 96% 30.13 0.0
03 01:35 Calm 10.00 Fair CLR 52.3 52.2 99% 30.12 0.0
03 01:15 Calm 10.00 Fair CLR 52.3 51.8 98% 30.12 0.0
03 00:55 Calm 10.00 Fair CLR 52.9 51.6 96% 30.12 0.0
03 00:15 Calm 10.00 Fair CLR 53.6 51.6 93% 30.12 0.0
02 23:55 Calm 10.00 Fair CLR 54.1 51.8 92% 30.12 0.0
02 23:35 Calm 10.00 Fair CLR 54.7 52 91% 30.12 0.0
02 23:15 Calm 10.00 Fair CLR 55.2 51.8 88% 30.12 0.0
02 22:55 Calm 10.00 Fair CLR 55.4 52.3 90% 30.12 0.0
02 22:35 Calm 10.00 Fair CLR 56.1 51.8 86% 30.11 0.0
02 22:15 Calm 10.00 Fair CLR 57 51.3 81% 30.11 0.0
02 21:55 Calm 10.00 Fair CLR 57.4 51.3 80% 30.11 0.0
02 21:35 Calm 10.00 Fair CLR 59 51.4 76% 30.1 0.0
02 21:15 Calm 10.00 Fair CLR 59.5 51.6 75% 30.1 0.0
02 20:55 Calm 10.00 Fair CLR 59.9 50.2 70% 30.09 0.0
02 20:35 Calm 9.00 Fair CLR 61.3 50.5 68% 30.09 0.0
02 20:15 Calm 8.00 Fair CLR 63.3 51.1 65% 30.08 0.0
02 19:55 Calm 8.00 Fair CLR 65.3 52 62% 30.08 0.0
02 19:35 Calm 8.00 Fair CLR 67.6 53.4 61% 30.07 0.0
02 19:15 Calm 8.00 Fair CLR 71.1 51.4 50% 30.07 0.0
02 18:55 N 3 9.00 Fair CLR 73.2 43.5 35% 30.07 0.0
02 18:35 Calm 9.00 Fair CLR 74.3 44.6 35% 30.07 0.0
02 18:15 Calm 9.00 Fair CLR 73.6 43.2 34% 30.08 0.0
02 17:55 NW 5 8.00 Fair CLR 74.5 43.2 33% 30.08 0.0
02 17:35 NW 7 10.00 Fair CLR 74.8 43.3 32% 30.08 0.0
02 17:15 NW 8 9.00 Fair CLR 74.1 43 33% 30.08 0.0
02 16:55 Vrbl 3 10.00 Fair CLR 74.5 42.6 32% 30.08 0.0
02 16:35 NW 9 9.00 Fair CLR 74.5 41.5 31% 30.09 0.0
02 16:15 NW 10 10.00 Fair CLR 74.3 41.9 31% 30.09 0.0
02 15:55 Vrbl 7 10.00 Fair CLR 74.5 42.3 32% 30.1 0.0
02 15:35 N 9 10.00 Fair CLR 74.7 42.4 32% 30.1 0.0
02 15:15 N 10 10.00 Fair CLR 73.9 41.7 31% 30.11 0.0
02 14:55 N 8 10.00 Fair CLR 74.5 40.8 30% 30.12 0.0
02 14:35 Vrbl 5 10.00 Fair CLR 73.8 40.6 30% 30.12 0.0
02 14:15 NW 9 10.00 Fair CLR 74.1 39.7 29% 30.13 0.0
02 13:55 NW 9 10.00 A Few Clouds FEW075 73.2 41 31% 30.13 0.0
02 13:35 NW 6 10.00 A Few Clouds FEW075 72.5 42.1 33% 30.14 0.0
02 13:15 Vrbl 6 10.00 Fair CLR 72.3 44.4 37% 30.15 0.0
02 12:55 Vrbl 3 10.00 Fair CLR 71.8 41.5 34% 30.15 0.0
02 12:35 Calm 10.00 Fair CLR 70.5 43.7 38% 30.16 0.0
02 12:15 N 7 10.00 Fair CLR 71.1 43.5 37% 30.16 0.0
02 11:55 Calm 10.00 Fair CLR 70 43.9 39% 30.16 0.0
02 11:35 Vrbl 5 9.00 Fair CLR 68.2 48.6 50% 30.16 0.0
02 11:15 Vrbl 3 10.00 Fair CLR 68 50.4 53% 30.16 0.0
02 10:55 NW 5 9.00 Fair CLR 66.7 51.8 59% 30.16 0.0
02 10:35 N 6 10.00 Fair CLR 66 50.7 58% 30.17 0.0
02 10:15 N 3 10.00 Fair CLR 64 50.5 62% 30.16 0.0
02 09:55 Calm 10.00 Fair CLR 62.4 50.5 65% 30.15 0.0
02 09:35 N 3 10.00 Fair CLR 61 49.6 66% 30.15 0.0
02 09:15 N 3 10.00 Fair CLR 59.9 49.1 68% 30.15 0.0
02 08:55 Calm 10.00 Fair CLR 58.8 48.7 69% 30.14 0.0
02 08:35 Calm 10.00 Fair CLR 57.4 48.4 72% 30.13 0.0
02 08:15 Calm 10.00 Fair CLR 56.5 50.7 81% 30.13 0.0
02 07:55 Calm 10.00 Fair CLR 54.3 51.3 89% 30.12 0.0
02 07:35 Calm 10.00 A Few Clouds FEW170 52 50.7 96% 30.12 0.0
02 07:15 Calm 9.00 Overcast OVC170 50.2 49.6 98% 30.11 0.0
02 06:55 Calm 10.00 Partly Cloudy SCT170 50.2 49.6 98% 30.11 0.0
02 06:35 Calm 10.00 Fair CLR 48 47.8 99% 30.09 0.0
02 06:15 Calm 10.00 Fair CLR 48.4 48.4 100% 30.08 0.0
02 05:55 Calm 10.00 Fair CLR 48.6 48.6 100% 30.07 0.0
02 05:15 Calm 10.00 Fair CLR 48.9 48.7 99% 30.08 0.0
02 04:55 Calm 10.00 Fair CLR 50 49.6 99% 30.07 0.0
02 04:35 Calm 10.00 Fair CLR 50.2 49.5 97% 30.06 0.0
02 04:15 Calm 10.00 Fair CLR 50.9 50 97% 30.06 0.0
02 03:55 Calm 10.00 Fair CLR 50.9 50.4 98% 30.06 0.0
02 03:35 Calm 10.00 Fair CLR 53.2 50.9 92% 30.06 0.0
02 03:15 Calm 10.00 Partly Cloudy FEW130 SCT150 52.5 52.2 99% 30.05 0.0
02 02:55 Calm 10.00 Mostly Cloudy BKN140 53.2 52.7 98% 30.06 0.0
02 02:35 Calm 10.00 Overcast OVC140 53.2 52.5 97% 30.06 0.0
02 02:15 Calm 10.00 Overcast FEW120 OVC150 52.9 52.5 99% 30.06 0.0
02 01:55 Calm 10.00 Mostly Cloudy FEW120 BKN150 52.7 52.5 99% 30.07 0.0
02 01:35 Calm 10.00 Mostly Cloudy SCT120 BKN140 BKN170 53.4 52.9 98% 30.07 0.0
02 01:15 Calm 10.00 Overcast BKN140 OVC170 53.8 53.1 97% 30.07 0.0
02 00:55 Calm 10.00 Overcast OVC140 54 53.1 97% 30.06 0.0
02 00:35 Calm 10.00 Overcast BKN130 OVC160 54 53.2 97% 30.07 0.0
02 00:15 Calm 10.00 Overcast BKN130 OVC160 54.9 53.8 96% 30.06 0.0
01 23:55 Calm 10.00 Overcast OVC130 55.6 52.7 90% 30.07 0.0
01 23:35 Calm 10.00 Overcast SCT065 OVC130 54.7 53.8 97% 30.06 0.0
01 23:15 Calm 10.00 Overcast OVC065 55.4 53.6 94% 30.06 0.0
01 22:55 Calm 10.00 Overcast SCT065 OVC130 54.9 54.1 97% 30.06 0.0
01 22:35 Calm 10.00 Overcast FEW100 BKN130 OVC170 54.9 53.6 96% 30.05 0.0
01 22:15 Calm 10.00 Mostly Cloudy BKN170 55.6 54.1 95% 30.05 0.0
01 21:55 Calm 10.00 Overcast OVC160 55.9 54.3 94% 30.05 0.0
01 21:35 Calm 10.00 Overcast SCT100 OVC150 56.3 54.5 94% 30.04 0.0
01 21:15 Calm 10.00 Overcast SCT065 BKN100 OVC150 56.1 54.9 96% 30.04 0.0
01 20:55 Calm 10.00 Overcast BKN065 BKN095 OVC150 56.7 54.7 93% 30.04 0.0
01 20:35 Calm 10.00 Mostly Cloudy FEW070 BKN100 56.7 54.7 93% 30.03 0.0
01 20:15 Calm 10.00 Partly Cloudy FEW070 SCT095 56.1 54.1 93% 30.02 0.0
01 19:55 Calm 10.00 Mostly Cloudy BKN090 56.3 54 92% 30 0.0
01 19:35 Calm 10.00 Overcast OVC090 56.5 54.3 93% 30 0.0
01 19:15 Calm 10.00 Overcast OVC095 57.6 53.6 87% 29.99 0.0
01 18:55 Calm 10.00 Overcast OVC095 57.6 52.7 84% 29.98 0.0
01 18:35 Calm 10.00 Overcast OVC095 58.1 52.2 81% 29.98 0.0 0.01
01 18:15 Calm 7.00 Light Rain OVC085 58.1 52.5 82% 29.98 0.0 0.01
01 17:55 Calm 9.00 Overcast OVC080 57.9 51.1 78% 29.98 0.0
01 17:35 Calm 9.00 Overcast OVC070 58.3 50.5 76% 29.98 0.0
01 17:15 N 5 10.00 Overcast OVC065 58.6 52.2 79% 29.95 0.0
01 16:55 N 3 8.00 Overcast OVC060 58.6 52.7 81% 29.96 0.0
01 16:35 N 3 7.00 Light Rain OVC060 58.3 53.2 83% 29.93 0.0
01 16:15 N 5 6.00 Light Rain OVC055 59.5 51.6 75% 29.96 0.0
01 15:55 N 5 10.00 Overcast OVC055 60.4 50.2 69% 29.97 0.0
01 15:35 Vrbl 5 10.00 Overcast OVC055 60.6 49.6 67% 29.97 0.0
01 15:15 NE 6 10.00 Overcast OVC055 61.3 48.7 63% 29.98 0.0
01 14:55 Vrbl 6 10.00 Overcast OVC055 62.6 48.2 60% 29.96 0.0
Date Time (cdt) Wind (mph) Vis. (mi.) Weather Sky Cond. Air Dwpt Max. Min. Relative Humidity Wind Chill (°F) Heat Index (°F) altimeter (in) sea level (mb) 1 hr 3 hr 6 hr
6 hour
Temperature (ºF) Pressure Precipitation (in)